Eagle Kinabalu — 9V8779 — position and weather

sailwx.info

Track history (hours):
 
Tides and Currents Weather Stations Pressure Air Temp Water Temp Dewpoint Dewpoint Depression Visibility Wind Speed Wind Dir Waves Ship Positions

Eagle Kinabalu

Last reported at 2017-Oct-19 13:52 UTC. Time now 2017-Oct-19 14:36 UTC.
Position N 38°32' W 074°40'.

Length 244 m; draft 10.3 m.

Type: Tanker. MMSI: 563326000.

Date/timePositionNaut miles runAvg speedWind from/ knotsBaromVisibWave heightAir tempDewpointWater temp
2017-Oct-19 13:52N 38°32' W 074°40'0 0.0
2017-Oct-19 13:01N 38°32' W 074°40'0 0.1
2017-Oct-19 12:55N 38°32' W 074°40'0 0.0
2017-Oct-19 12:26N 38°32' W 074°40'0 0.1
2017-Oct-19 12:00N 38°32' W 074°40'2 3.5
2017-Oct-19 11:31N 38°31' W 074°42'2 4.4
2017-Oct-19 11:01N 38°29' W 074°41'612.3
2017-Oct-19 10:30N 38°26' W 074°34'4 7.0
2017-Oct-19 10:00N 38°23' W 074°31'0 0.4
2017-Oct-19 09:30N 38°23' W 074°31'0 0.3
2017-Oct-19 09:00N 38°22' W 074°31'0 0.1
2017-Oct-19 06:56N 38°22' W 074°32'1 1.3
2017-Oct-19 06:30N 38°22' W 074°32'5 0.3
2017-Oct-18 13:20N 38°27' W 074°31'1 2.4
2017-Oct-18 13:00N 38°27' W 074°31'2 4.0
2017-Oct-18 12:29N 38°27' W 074°28'1 2.6
2017-Oct-18 12:00N 38°26' W 074°27'0 0.3
2017-Oct-18 11:28N 38°25' W 074°27'0 0.5
2017-Oct-18 10:55N 38°25' W 074°27'1 2.6
2017-Oct-18 10:29N 38°24' W 074°28'0 1.0
2017-Oct-18 10:00N 38°24' W 074°28'0 0.1
2017-Oct-18 09:28N 38°24' W 074°28'1 2.0
2017-Oct-18 09:00N 38°23' W 074°28'2 3.7
2017-Oct-18 08:30N 38°21' W 074°27'1 2.3
2017-Oct-18 08:00N 38°20' W 074°27'1 1.3
2017-Oct-18 07:14N 38°21' W 074°26'0 1.0
2017-Oct-18 06:59N 38°21' W 074°26'1 0.9
2017-Oct-18 06:16N 38°22' W 074°26'15 1.2
2017-Oct-17 17:19N 38°36' W 074°29'1 2.1
2017-Oct-17 16:57N 38°37' W 074°28'1 2.2
2017-Oct-17 16:27N 38°37' W 074°27'1 2.2
2017-Oct-17 16:00N 38°38' W 074°26'1 2.2
2017-Oct-17 15:30N 38°39' W 074°25'3 2.3
2017-Oct-17 14:24N 38°41' W 074°25'1 1.8
2017-Oct-17 13:49N 38°42' W 074°26'2 5.1
2017-Oct-17 13:28N 38°40' W 074°27'511.3
2017-Oct-17 12:59N 38°35' W 074°30'  
2017-Oct-14 20:27N 38°34' W 074°31'18 0.4
2017-Oct-13 05:08N 38°16' W 074°31'1 4.8
2017-Oct-13 05:00N 38°16' W 074°30'2 3.6
2017-Oct-13 04:25N 38°18' W 074°28'3 4.1
2017-Oct-13 03:47N 38°19' W 074°25'2 4.0
2017-Oct-13 03:21N 38°20' W 074°24'1 3.7
2017-Oct-13 03:00N 38°21' W 074°22'5 3.8
2017-Oct-13 01:36N 38°17' W 074°27'0 3.0
2017-Oct-13 01:27N 38°17' W 074°28'3 4.0
2017-Oct-13 00:43N 38°18' W 074°24'4 3.8
2017-Oct-12 23:34N 38°21' W 074°21'0 5.2
2017-Oct-12 23:29N 38°22' W 074°20'2 2.9
2017-Oct-12 22:50N 38°24' W 074°19'2 4.8
2017-Oct-12 22:30N 38°22' W 074°21'45 5.6
2017-Oct-12 14:24N 38°51' W 075°05'612.6
2017-Oct-12 13:55N 38°57' W 075°07'513.2
2017-Oct-12 13:30N 39°02' W 075°10'713.6
2017-Oct-12 12:59N 39°08' W 075°14'714.2
2017-Oct-12 12:31N 39°14' W 075°18'714.4
2017-Oct-12 12:00N 39°19' W 075°25'713.9
2017-Oct-12 11:31N 39°25' W 075°31'612.1
2017-Oct-12 11:01N 39°30' W 075°33'510.0
2017-Oct-12 10:31N 39°35' W 075°34'5 9.4
2017-Oct-12 10:00N 39°40' W 075°32'5 9.6
2017-Oct-12 09:30N 39°44' W 075°30'5 9.6
2017-Oct-12 09:00N 39°48' W 075°26'1 1.6
2017-Oct-12 08:30N 39°48' W 075°25'0 0.0
2017-Oct-12 08:00N 39°48' W 075°25'0 0.0
2017-Oct-12 07:30N 39°48' W 075°25'0 0.0
2017-Oct-12 07:00N 39°48' W 075°25'0 0.0
2017-Oct-12 06:30N 39°48' W 075°25'0 0.0
2017-Oct-12 05:57N 39°48' W 075°25'0 0.0
2017-Oct-12 05:30N 39°48' W 075°25'0 0.0
2017-Oct-12 04:57N 39°48' W 075°25'0 0.0
2017-Oct-12 04:31N 39°48' W 075°25'0 0.0
2017-Oct-12 04:00N 39°48' W 075°25'0 0.0
2017-Oct-12 03:30N 39°48' W 075°25'0 0.0
2017-Oct-12 03:00N 39°48' W 075°25'0 0.0
2017-Oct-12 02:30N 39°48' W 075°25'0 0.0
2017-Oct-12 02:00N 39°48' W 075°25'0 0.0
2017-Oct-12 01:30N 39°48' W 075°25'0 0.0
2017-Oct-12 01:00N 39°48' W 075°25'0 0.0
2017-Oct-12 00:30N 39°48' W 075°25'0 0.0
2017-Oct-12 00:00N 39°48' W 075°25'0 0.0
2017-Oct-11 23:30N 39°48' W 075°25'0 0.0
2017-Oct-11 23:00N 39°48' W 075°25'0 0.0
2017-Oct-11 22:30N 39°48' W 075°25'0 0.0
2017-Oct-11 22:00N 39°48' W 075°25'0 0.0
2017-Oct-11 21:30N 39°48' W 075°25'0 0.0
2017-Oct-11 20:54N 39°48' W 075°25'0 0.0
2017-Oct-11 20:30N 39°48' W 075°25'0 0.0
2017-Oct-11 20:00N 39°48' W 075°25'0 0.0
2017-Oct-11 19:30N 39°48' W 075°25'0 0.0
2017-Oct-11 18:57N 39°48' W 075°25'0 0.0
2017-Oct-11 18:30N 39°48' W 075°25'0 0.0
2017-Oct-11 18:00N 39°48' W 075°25'0 0.0
2017-Oct-11 17:30N 39°48' W 075°25'0 0.0
2017-Oct-11 17:00N 39°48' W 075°25'0 0.0
2017-Oct-11 00:00N 39°48' W 075°25'0 0.0
2017-Oct-10 23:30N 39°48' W 075°25'0 0.0
2017-Oct-10 22:57N 39°48' W 075°25'0 0.0
2017-Oct-10 22:30N 39°48' W 075°25'0 0.0
2017-Oct-10 22:00N 39°48' W 075°25'0 0.0
2017-Oct-10 21:27N 39°48' W 075°25'0 0.0
2017-Oct-10 21:00N 39°48' W 075°25'0 0.0
2017-Oct-10 20:30N 39°48' W 075°25'0 0.0
2017-Oct-10 20:00N 39°48' W 075°25'0 0.0
2017-Oct-10 19:30N 39°48' W 075°25'0 0.0
2017-Oct-10 19:00N 39°48' W 075°25'0 0.0
2017-Oct-10 18:30N 39°48' W 075°25'0 0.0
2017-Oct-10 18:00N 39°48' W 075°25'0 0.1
2017-Oct-10 17:27N 39°48' W 075°25'0 0.5
2017-Oct-10 17:00N 39°48' W 075°25'2 4.7
2017-Oct-10 16:30N 39°47' W 075°27'4 8.9
2017-Oct-10 16:00N 39°43' W 075°30'611.4
2017-Oct-10 15:30N 39°38' W 075°34'4 8.7
2017-Oct-10 15:00N 39°34' W 075°33'1010.0
2017-Oct-10 14:00N 39°24' W 075°30'611.3
2017-Oct-10 13:30N 39°20' W 075°25'611.4
2017-Oct-10 13:00N 39°16' W 075°20'511.1
2017-Oct-10 12:30N 39°11' W 075°17'611.4
2017-Oct-10 12:00N 39°06' W 075°12'611.5
2017-Oct-10 11:30N 39°01' W 075°09'611.7
2017-Oct-10 11:00N 38°56' W 075°06'611.1
2017-Oct-10 10:30N 38°51' W 075°04'4 8.6
2017-Oct-10 10:00N 38°47' W 075°02'4 7.5
2017-Oct-10 09:30N 38°45' W 074°57'3 5.6
2017-Oct-10 09:00N 38°43' W 074°55'4 7.9
2017-Oct-10 08:30N 38°40' W 074°52'4 8.8
2017-Oct-10 08:00N 38°36' W 074°48'5 9.1
2017-Oct-10 07:30N 38°33' W 074°44'5 9.2
2017-Oct-10 06:58N 38°33' W 074°38'1 0.4
2017-Oct-10 05:22N 38°33' W 074°37'0 0.0
2017-Oct-09 15:04N 38°33' W 074°37'0 0.0
2017-Oct-09 14:46N 38°33' W 074°37'  
Track history (hours):
 
Tides and Currents Weather Stations Pressure Air Temp Water Temp Dewpoint Dewpoint Depression Visibility Wind Speed Wind Dir Waves Ship Positions

Eagle Kinabalu

Last reported at 2017-Oct-19 13:52 UTC. Time now 2017-Oct-19 14:36 UTC.
Position N 38°32' W 074°40'.

Length 244 m; draft 10.3 m.

Type: Tanker. MMSI: 563326000.

Date/timePositionNaut miles runAvg speedWind from/ knotsBaromVisibWave heightAir tempDewpointWater temp
2017-Oct-19 13:52N 38°32' W 074°40'0 0.0
2017-Oct-19 13:01N 38°32' W 074°40'0 0.1
2017-Oct-19 12:55N 38°32' W 074°40'0 0.0
2017-Oct-19 12:26N 38°32' W 074°40'0 0.1
2017-Oct-19 12:00N 38°32' W 074°40'2 3.5
2017-Oct-19 11:31N 38°31' W 074°42'2 4.4
2017-Oct-19 11:01N 38°29' W 074°41'612.3
2017-Oct-19 10:30N 38°26' W 074°34'4 7.0
2017-Oct-19 10:00N 38°23' W 074°31'0 0.4
2017-Oct-19 09:30N 38°23' W 074°31'0 0.3
2017-Oct-19 09:00N 38°22' W 074°31'0 0.1
2017-Oct-19 06:56N 38°22' W 074°32'1 1.3
2017-Oct-19 06:30N 38°22' W 074°32'5 0.3
2017-Oct-18 13:20N 38°27' W 074°31'1 2.4
2017-Oct-18 13:00N 38°27' W 074°31'2 4.0
2017-Oct-18 12:29N 38°27' W 074°28'1 2.6
2017-Oct-18 12:00N 38°26' W 074°27'0 0.3
2017-Oct-18 11:28N 38°25' W 074°27'0 0.5
2017-Oct-18 10:55N 38°25' W 074°27'1 2.6
2017-Oct-18 10:29N 38°24' W 074°28'0 1.0
2017-Oct-18 10:00N 38°24' W 074°28'0 0.1
2017-Oct-18 09:28N 38°24' W 074°28'1 2.0
2017-Oct-18 09:00N 38°23' W 074°28'2 3.7
2017-Oct-18 08:30N 38°21' W 074°27'1 2.3
2017-Oct-18 08:00N 38°20' W 074°27'1 1.3
2017-Oct-18 07:14N 38°21' W 074°26'0 1.0
2017-Oct-18 06:59N 38°21' W 074°26'1 0.9
2017-Oct-18 06:16N 38°22' W 074°26'15 1.2
2017-Oct-17 17:19N 38°36' W 074°29'1 2.1
2017-Oct-17 16:57N 38°37' W 074°28'1 2.2
2017-Oct-17 16:27N 38°37' W 074°27'1 2.2
2017-Oct-17 16:00N 38°38' W 074°26'1 2.2
2017-Oct-17 15:30N 38°39' W 074°25'3 2.3
2017-Oct-17 14:24N 38°41' W 074°25'1 1.8
2017-Oct-17 13:49N 38°42' W 074°26'2 5.1
2017-Oct-17 13:28N 38°40' W 074°27'511.3
2017-Oct-17 12:59N 38°35' W 074°30'  
2017-Oct-14 20:27N 38°34' W 074°31'18 0.4
2017-Oct-13 05:08N 38°16' W 074°31'1 4.8
2017-Oct-13 05:00N 38°16' W 074°30'2 3.6
2017-Oct-13 04:25N 38°18' W 074°28'3 4.1
2017-Oct-13 03:47N 38°19' W 074°25'2 4.0
2017-Oct-13 03:21N 38°20' W 074°24'1 3.7
2017-Oct-13 03:00N 38°21' W 074°22'5 3.8
2017-Oct-13 01:36N 38°17' W 074°27'0 3.0
2017-Oct-13 01:27N 38°17' W 074°28'3 4.0
2017-Oct-13 00:43N 38°18' W 074°24'4 3.8
2017-Oct-12 23:34N 38°21' W 074°21'0 5.2
2017-Oct-12 23:29N 38°22' W 074°20'2 2.9
2017-Oct-12 22:50N 38°24' W 074°19'2 4.8
2017-Oct-12 22:30N 38°22' W 074°21'45 5.6
2017-Oct-12 14:24N 38°51' W 075°05'612.6
2017-Oct-12 13:55N 38°57' W 075°07'513.2
2017-Oct-12 13:30N 39°02' W 075°10'713.6
2017-Oct-12 12:59N 39°08' W 075°14'714.2
2017-Oct-12 12:31N 39°14' W 075°18'714.4
2017-Oct-12 12:00N 39°19' W 075°25'713.9
2017-Oct-12 11:31N 39°25' W 075°31'612.1
2017-Oct-12 11:01N 39°30' W 075°33'510.0
2017-Oct-12 10:31N 39°35' W 075°34'5 9.4
2017-Oct-12 10:00N 39°40' W 075°32'5 9.6
2017-Oct-12 09:30N 39°44' W 075°30'5 9.6
2017-Oct-12 09:00N 39°48' W 075°26'1 1.6
2017-Oct-12 08:30N 39°48' W 075°25'0 0.0
2017-Oct-12 08:00N 39°48' W 075°25'0 0.0
2017-Oct-12 07:30N 39°48' W 075°25'0 0.0
2017-Oct-12 07:00N 39°48' W 075°25'0 0.0
2017-Oct-12 06:30N 39°48' W 075°25'0 0.0
2017-Oct-12 05:57N 39°48' W 075°25'0 0.0
2017-Oct-12 05:30N 39°48' W 075°25'0 0.0
2017-Oct-12 04:57N 39°48' W 075°25'0 0.0
2017-Oct-12 04:31N 39°48' W 075°25'0 0.0
2017-Oct-12 04:00N 39°48' W 075°25'0 0.0
2017-Oct-12 03:30N 39°48' W 075°25'0 0.0
2017-Oct-12 03:00N 39°48' W 075°25'0 0.0
2017-Oct-12 02:30N 39°48' W 075°25'0 0.0
2017-Oct-12 02:00N 39°48' W 075°25'0 0.0
2017-Oct-12 01:30N 39°48' W 075°25'0 0.0
2017-Oct-12 01:00N 39°48' W 075°25'0 0.0
2017-Oct-12 00:30N 39°48' W 075°25'0 0.0
2017-Oct-12 00:00N 39°48' W 075°25'0 0.0
2017-Oct-11 23:30N 39°48' W 075°25'0 0.0
2017-Oct-11 23:00N 39°48' W 075°25'0 0.0
2017-Oct-11 22:30N 39°48' W 075°25'0 0.0
2017-Oct-11 22:00N 39°48' W 075°25'0 0.0
2017-Oct-11 21:30N 39°48' W 075°25'0 0.0
2017-Oct-11 20:54N 39°48' W 075°25'0 0.0
2017-Oct-11 20:30N 39°48' W 075°25'0 0.0
2017-Oct-11 20:00N 39°48' W 075°25'0 0.0
2017-Oct-11 19:30N 39°48' W 075°25'0 0.0
2017-Oct-11 18:57N 39°48' W 075°25'0 0.0
2017-Oct-11 18:30N 39°48' W 075°25'0 0.0
2017-Oct-11 18:00N 39°48' W 075°25'0 0.0
2017-Oct-11 17:30N 39°48' W 075°25'0 0.0
2017-Oct-11 17:00N 39°48' W 075°25'0 0.0
2017-Oct-11 00:00N 39°48' W 075°25'0 0.0
2017-Oct-10 23:30N 39°48' W 075°25'0 0.0
2017-Oct-10 22:57N 39°48' W 075°25'0 0.0
2017-Oct-10 22:30N 39°48' W 075°25'0 0.0
2017-Oct-10 22:00N 39°48' W 075°25'0 0.0
2017-Oct-10 21:27N 39°48' W 075°25'0 0.0
2017-Oct-10 21:00N 39°48' W 075°25'0 0.0
2017-Oct-10 20:30N 39°48' W 075°25'0 0.0
2017-Oct-10 20:00N 39°48' W 075°25'0 0.0
2017-Oct-10 19:30N 39°48' W 075°25'0 0.0
2017-Oct-10 19:00N 39°48' W 075°25'0 0.0
2017-Oct-10 18:30N 39°48' W 075°25'0 0.0
2017-Oct-10 18:00N 39°48' W 075°25'0 0.1
2017-Oct-10 17:27N 39°48' W 075°25'0 0.5
2017-Oct-10 17:00N 39°48' W 075°25'2 4.7
2017-Oct-10 16:30N 39°47' W 075°27'4 8.9
2017-Oct-10 16:00N 39°43' W 075°30'611.4
2017-Oct-10 15:30N 39°38' W 075°34'4 8.7
2017-Oct-10 15:00N 39°34' W 075°33'1010.0
2017-Oct-10 14:00N 39°24' W 075°30'611.3
2017-Oct-10 13:30N 39°20' W 075°25'611.4
2017-Oct-10 13:00N 39°16' W 075°20'511.1
2017-Oct-10 12:30N 39°11' W 075°17'611.4
2017-Oct-10 12:00N 39°06' W 075°12'611.5
2017-Oct-10 11:30N 39°01' W 075°09'611.7
2017-Oct-10 11:00N 38°56' W 075°06'611.1
2017-Oct-10 10:30N 38°51' W 075°04'4 8.6
2017-Oct-10 10:00N 38°47' W 075°02'4 7.5
2017-Oct-10 09:30N 38°45' W 074°57'3 5.6
2017-Oct-10 09:00N 38°43' W 074°55'4 7.9
2017-Oct-10 08:30N 38°40' W 074°52'4 8.8
2017-Oct-10 08:00N 38°36' W 074°48'5 9.1
2017-Oct-10 07:30N 38°33' W 074°44'5 9.2
2017-Oct-10 06:58N 38°33' W 074°38'1 0.4
2017-Oct-10 05:22N 38°33' W 074°37'0 0.0
2017-Oct-09 15:04N 38°33' W 074°37'0 0.0
2017-Oct-09 14:46N 38°33' W 074°37'  

Dump ship's entire track history